createdAt,value
2022-09-11T15:54:54.715Z,22.98
2022-09-11T15:57:21.309Z,35.58
2022-09-11T15:59:48.030Z,39.10
2022-09-11T16:02:14.976Z,38.22
2022-09-11T16:04:41.676Z,30.40
2022-09-11T16:07:08.360Z,28.13
2022-09-11T16:09:35.711Z,39.08
2022-09-11T16:12:02.924Z,37.30
2022-09-11T16:14:33.099Z,48.00
2022-09-11T16:17:01.782Z,27.65
2022-09-11T16:19:29.203Z,33.25
2022-09-11T16:21:57.440Z,31.23
2022-09-11T16:24:26.313Z,35.05
2022-09-11T16:26:56.979Z,30.17
2022-09-11T16:29:25.847Z,32.35
2022-09-11T16:31:53.487Z,46.97
2022-09-11T16:34:20.101Z,40.28
2022-09-11T16:36:46.816Z,31.42
2022-09-11T16:39:16.368Z,31.52
2022-09-11T16:41:43.493Z,36.42
2022-09-11T16:44:13.039Z,42.65
2022-09-11T16:46:40.967Z,44.08
2022-09-11T16:49:07.632Z,43.08
2022-09-11T16:51:34.434Z,41.13
2022-09-11T16:54:01.476Z,34.85
2022-09-11T16:56:28.105Z,41.50
2022-09-11T16:58:54.775Z,38.67
2022-09-11T17:01:24.854Z,39.58
2022-09-11T17:03:53.336Z,47.88
2022-09-11T17:06:21.548Z,43.03
2022-09-11T17:08:50.969Z,37.22
2022-09-11T17:11:20.072Z,47.72
2022-09-11T17:13:47.165Z,44.55
2022-09-11T17:16:19.469Z,44.75
2022-09-11T17:18:50.150Z,38.70
2022-09-11T17:21:17.418Z,42.42
2022-09-11T17:23:45.821Z,43.58
2022-09-11T17:26:18.948Z,63.05
2022-09-11T17:28:49.605Z,58.55
2022-09-11T17:31:19.221Z,61.33
2022-09-11T17:33:47.359Z,50.50
2022-09-11T17:36:18.611Z,57.50
2022-09-11T17:38:48.368Z,54.25
2022-09-11T17:41:15.740Z,50.80
2022-09-11T17:43:42.745Z,50.10
2022-09-11T17:46:15.228Z,58.42
2022-09-11T17:48:42.605Z,63.40
2022-09-11T17:51:11.952Z,56.95
2022-09-11T17:53:44.130Z,56.65
2022-09-11T17:56:14.439Z,57.97
2022-09-11T17:58:42.652Z,58.60
2022-09-11T18:01:12.568Z,63.00
2022-09-11T18:03:45.303Z,62.17
2022-09-11T18:06:19.543Z,58.20
2022-09-11T18:08:46.908Z,53.33
2022-09-11T18:11:13.652Z,60.03
2022-09-11T18:13:42.171Z,59.58
2022-09-11T18:16:11.457Z,58.53
2022-09-11T18:18:39.485Z,46.88
2022-09-11T18:21:09.025Z,56.13
2022-09-11T18:23:45.029Z,54.53
2022-09-11T18:26:27.053Z,54.13
2022-09-11T18:29:03.746Z,60.08
2022-09-11T18:31:32.746Z,52.83
2022-09-11T18:34:01.014Z,48.03
2022-09-11T18:36:29.693Z,51.35
2022-09-11T18:39:04.046Z,53.58
2022-09-11T18:41:35.005Z,50.63
2022-09-11T18:44:04.322Z,45.60
2022-09-11T18:46:34.303Z,48.22
2022-09-11T18:49:01.713Z,53.05
2022-09-11T18:51:28.342Z,49.95
2022-09-11T18:53:55.993Z,52.30
2022-09-11T18:56:28.679Z,45.78
2022-09-11T18:58:56.096Z,50.70
2022-09-11T19:01:26.503Z,49.70
2022-09-11T19:03:56.010Z,51.03
2022-09-11T19:06:25.271Z,52.40
2022-09-11T19:08:53.900Z,41.20
2022-09-11T19:11:25.533Z,51.33
2022-09-11T19:13:54.588Z,47.58
2022-09-11T19:16:22.145Z,45.83
2022-09-11T19:18:49.317Z,51.20
2022-09-11T19:21:18.433Z,60.85
2022-09-11T19:23:47.346Z,44.58
2022-09-11T19:26:21.995Z,56.78
2022-09-11T19:28:50.386Z,49.05
2022-09-11T19:31:24.973Z,48.78
2022-09-11T19:33:53.119Z,42.67
2022-09-11T19:36:23.809Z,41.72
2022-09-11T19:38:52.966Z,41.03
2022-09-11T19:41:23.149Z,44.70
2022-09-11T19:43:50.934Z,45.60
2022-09-11T19:46:20.147Z,47.58
2022-09-11T19:48:48.476Z,44.58
2022-09-11T19:51:23.148Z,39.65
2022-09-11T19:53:52.197Z,41.28
2022-09-11T19:56:19.526Z,41.55
2022-09-11T19:58:47.864Z,42.22
2022-09-11T20:01:17.164Z,38.28
2022-09-11T20:03:45.943Z,39.58
2022-09-11T20:06:15.261Z,44.63
2022-09-11T20:08:44.241Z,40.30
2022-09-11T20:11:14.421Z,36.97
2022-09-11T20:13:41.818Z,44.30
2022-09-11T20:16:12.004Z,41.13
2022-09-11T20:18:38.749Z,34.25
2022-09-11T20:21:14.202Z,39.88
2022-09-11T20:23:40.891Z,42.50
2022-09-11T20:26:17.183Z,39.83
2022-09-11T20:28:46.153Z,45.90
2022-09-11T20:31:13.808Z,38.40
2022-09-11T20:33:40.936Z,42.78
2022-09-11T20:36:08.940Z,41.00
2022-09-11T20:38:35.688Z,37.50
2022-09-11T20:41:14.123Z,34.65
2022-09-11T20:43:41.689Z,37.78
2022-09-11T20:46:09.202Z,38.22
2022-09-11T20:48:37.947Z,41.72
2022-09-11T20:51:07.706Z,41.25
2022-09-11T20:53:36.113Z,40.28
2022-09-11T20:56:05.156Z,40.67
2022-09-11T20:58:31.788Z,39.55
2022-09-11T21:01:00.570Z,42.50
2022-09-11T21:03:29.196Z,39.97
2022-09-11T21:05:56.440Z,42.55
2022-09-11T21:08:25.547Z,39.95
2022-09-11T21:10:53.750Z,36.47
2022-09-11T21:13:20.346Z,40.65
2022-09-11T21:15:48.438Z,42.60
2022-09-11T21:18:16.326Z,44.22
2022-09-11T21:20:43.012Z,36.42
2022-09-11T21:23:09.598Z,38.25
2022-09-11T21:25:40.315Z,39.25
2022-09-11T21:28:06.949Z,40.08
2022-09-11T21:30:33.788Z,39.20
2022-09-11T21:33:02.770Z,43.58
2022-09-11T21:35:29.362Z,39.13
2022-09-11T21:37:55.991Z,40.30
2022-09-11T21:40:22.719Z,41.08
2022-09-11T21:42:49.268Z,40.97
2022-09-11T21:45:15.895Z,37.90
2022-09-11T21:47:43.347Z,36.42
2022-09-11T21:50:10.422Z,37.75
2022-09-11T21:52:38.234Z,38.40
2022-09-11T21:55:05.266Z,37.13
2022-09-11T21:57:31.827Z,33.58
2022-09-11T21:59:58.807Z,32.47
2022-09-11T22:02:27.316Z,28.30
2022-09-11T22:04:54.308Z,26.27
2022-09-11T22:07:21.924Z,30.85
2022-09-11T22:09:50.313Z,30.95
2022-09-11T22:12:17.048Z,29.42
2022-09-11T22:14:46.794Z,29.15
2022-09-11T22:17:14.356Z,28.98
2022-09-11T22:19:44.431Z,24.08
2022-09-11T22:22:10.989Z,27.20
2022-09-11T22:24:39.552Z,26.50
2022-09-11T22:27:09.244Z,24.40
2022-09-11T22:29:37.058Z,19.35
2022-09-11T22:32:05.296Z,20.67
2022-09-11T22:34:33.975Z,17.77
2022-09-11T22:37:00.722Z,17.95
2022-09-11T22:39:28.140Z,16.98
2022-09-11T22:41:55.116Z,16.77
2022-09-11T22:44:21.665Z,15.23
2022-09-11T22:46:48.919Z,16.48
2022-09-11T22:49:15.753Z,19.48
2022-09-11T22:51:42.390Z,16.00
2022-09-11T22:54:08.974Z,15.38
2022-09-11T22:56:35.547Z,13.80
2022-09-11T22:59:02.109Z,16.38
2022-09-11T23:01:28.784Z,14.68
2022-09-11T23:03:55.438Z,12.25
2022-09-11T23:06:41.422Z,13.13
2022-09-11T23:09:11.084Z,13.95
2022-09-11T23:11:37.744Z,11.25
2022-09-11T23:14:04.411Z,9.98
2022-09-11T23:16:31.561Z,10.70
2022-09-11T23:19:01.292Z,9.20
2022-09-11T23:21:31.672Z,10.73
2022-09-11T23:23:59.455Z,13.15
2022-09-11T23:26:28.764Z,12.07
2022-09-11T23:28:56.397Z,12.27
2022-09-11T23:31:32.031Z,10.98
2022-09-11T23:34:01.492Z,11.07
2022-09-11T23:36:31.802Z,9.05
2022-09-11T23:38:59.168Z,9.20
2022-09-11T23:41:26.293Z,10.27
2022-09-11T23:43:53.696Z,9.85
2022-09-11T23:46:20.639Z,9.75
2022-09-11T23:48:48.431Z,11.40
2022-09-11T23:51:15.702Z,10.73
2022-09-11T23:53:45.162Z,10.82
2022-09-11T23:56:14.508Z,10.23
2022-09-11T23:58:42.265Z,9.40
